createdAt,value
2022-10-05T00:09:48.223Z,5.90
2022-10-05T00:12:21.379Z,5.80
2022-10-05T00:14:51.713Z,5.70
2022-10-05T00:17:27.457Z,5.70
2022-10-05T00:19:55.229Z,5.80
2022-10-05T00:22:31.930Z,5.70
2022-10-05T00:25:02.182Z,5.70
2022-10-05T00:27:36.805Z,5.70
2022-10-05T00:30:22.443Z,5.70
2022-10-05T00:32:52.290Z,5.70
2022-10-05T00:35:24.427Z,5.60
2022-10-05T00:37:54.832Z,5.60
2022-10-05T00:40:45.707Z,5.60
2022-10-05T00:43:30.508Z,5.60
2022-10-05T00:46:15.734Z,5.50
2022-10-05T00:49:03.291Z,5.40
2022-10-05T00:51:38.685Z,5.40
2022-10-05T00:54:34.176Z,5.30
2022-10-05T00:57:30.872Z,5.30
2022-10-05T01:00:17.388Z,5.30
2022-10-05T01:03:02.575Z,5.20
2022-10-05T01:05:36.083Z,5.20
2022-10-05T01:08:21.373Z,5.20
2022-10-05T01:11:02.882Z,5.20
2022-10-05T01:13:59.061Z,5.20
2022-10-05T01:16:53.081Z,5.20
2022-10-05T01:20:04.584Z,5.20
2022-10-05T01:23:00.338Z,5.20
2022-10-05T01:25:48.914Z,5.20
2022-10-05T01:28:26.026Z,5.10
2022-10-05T01:31:18.672Z,5.10
2022-10-05T01:33:46.181Z,5.10
2022-10-05T01:36:34.726Z,5.10
2022-10-05T01:39:40.603Z,5.10
2022-10-05T01:42:45.530Z,5.00
2022-10-05T01:45:26.557Z,5.10
2022-10-05T01:48:05.593Z,5.10
2022-10-05T01:51:16.261Z,5.00
2022-10-05T01:54:15.000Z,5.00
2022-10-05T01:57:11.059Z,5.00
2022-10-05T02:00:03.486Z,4.90
2022-10-05T02:02:56.320Z,5.00
2022-10-05T02:05:56.664Z,5.00
2022-10-05T02:08:31.519Z,5.00
2022-10-05T02:11:05.486Z,5.00
2022-10-05T02:13:55.922Z,5.10
2022-10-05T02:16:40.221Z,5.00
2022-10-05T02:22:44.903Z,5.00
2022-10-05T02:25:16.420Z,4.90
2022-10-05T02:28:12.939Z,5.00
2022-10-05T02:30:50.543Z,4.90
2022-10-05T02:33:29.920Z,4.90
2022-10-05T02:36:16.356Z,4.80
2022-10-05T02:39:04.151Z,4.80
2022-10-05T02:41:56.245Z,4.80
2022-10-05T02:47:55.607Z,4.80
2022-10-05T02:50:48.050Z,4.80
2022-10-05T02:53:40.636Z,4.70
2022-10-05T02:56:21.810Z,4.70
2022-10-05T02:59:31.336Z,4.70
2022-10-05T03:02:15.114Z,4.70
2022-10-05T03:04:52.746Z,4.60
2022-10-05T03:07:41.597Z,4.60
2022-10-05T03:10:30.539Z,4.50
2022-10-05T03:13:10.408Z,4.50
2022-10-05T03:15:59.984Z,4.60
2022-10-05T03:18:47.720Z,4.70
2022-10-05T03:21:36.629Z,4.80
2022-10-05T03:24:22.627Z,4.80
2022-10-05T03:27:05.173Z,4.90
2022-10-05T03:29:41.356Z,5.00
2022-10-05T03:33:02.317Z,5.00
2022-10-05T03:35:48.800Z,5.10
2022-10-05T03:38:35.397Z,5.10
2022-10-05T03:41:24.031Z,5.10
2022-10-05T03:43:56.887Z,5.10
2022-10-05T03:46:32.330Z,5.10
2022-10-05T03:49:14.837Z,5.10
2022-10-05T03:51:48.552Z,5.10
2022-10-05T03:54:34.899Z,5.10
2022-10-05T03:57:18.838Z,5.20
2022-10-05T04:00:17.105Z,5.30
2022-10-05T04:03:05.685Z,5.30
2022-10-05T04:05:50.745Z,5.30
2022-10-05T04:08:37.513Z,5.10
2022-10-05T04:11:15.513Z,5.00
2022-10-05T04:13:50.668Z,4.90
2022-10-05T04:16:28.343Z,4.90
2022-10-05T04:19:02.088Z,4.80
2022-10-05T04:21:38.177Z,4.80
2022-10-05T04:24:39.617Z,4.80
2022-10-05T04:27:22.064Z,4.70
2022-10-05T04:29:58.773Z,4.70
2022-10-05T04:32:48.026Z,4.70
2022-10-05T04:35:30.987Z,4.70
2022-10-05T04:38:20.707Z,4.70
2022-10-05T04:41:05.169Z,4.70
2022-10-05T04:43:54.421Z,4.70
2022-10-05T04:46:34.229Z,4.60
2022-10-05T04:49:33.812Z,4.60
2022-10-05T04:52:22.433Z,4.60
2022-10-05T04:55:09.225Z,4.60
2022-10-05T04:58:00.277Z,4.50
2022-10-05T05:00:48.215Z,4.50
2022-10-05T05:03:49.577Z,4.50
2022-10-05T05:06:54.842Z,4.40
2022-10-05T05:09:31.018Z,4.40
2022-10-05T05:12:19.920Z,4.40
2022-10-05T05:15:12.346Z,4.40
2022-10-05T05:18:02.754Z,4.40
2022-10-05T05:21:18.496Z,4.30
2022-10-05T05:24:10.651Z,4.30
2022-10-05T05:27:13.431Z,4.30
2022-10-05T05:30:03.010Z,4.30
2022-10-05T05:32:44.519Z,4.30
2022-10-05T05:35:48.143Z,4.30
2022-10-05T05:38:30.463Z,4.30
2022-10-05T05:41:26.824Z,4.40
2022-10-05T05:44:18.297Z,4.40
2022-10-05T05:47:04.408Z,4.40
2022-10-05T05:49:44.847Z,4.40
2022-10-05T05:52:24.686Z,4.50
2022-10-05T05:55:00.327Z,4.60
2022-10-05T05:57:41.841Z,4.60
2022-10-05T06:00:15.594Z,4.70
2022-10-05T06:03:21.667Z,4.80
2022-10-05T06:06:04.359Z,4.90
2022-10-05T06:08:56.177Z,5.00
2022-10-05T06:11:53.915Z,5.10
2022-10-05T06:14:46.039Z,5.20
2022-10-05T06:17:18.356Z,5.20
2022-10-05T06:19:49.586Z,5.30
2022-10-05T06:22:26.178Z,5.40
2022-10-05T06:25:12.173Z,5.50
2022-10-05T06:28:13.834Z,5.70
2022-10-05T06:31:23.364Z,5.80
2022-10-05T06:34:20.197Z,6.00
2022-10-05T06:37:00.081Z,6.20
2022-10-05T06:40:01.541Z,6.30
2022-10-05T06:43:03.240Z,6.50
2022-10-05T06:46:05.574Z,6.70
2022-10-05T06:49:18.073Z,6.80
2022-10-05T06:51:58.396Z,7.00
2022-10-05T06:54:51.271Z,7.10
2022-10-05T06:57:36.578Z,7.30
2022-10-05T07:00:20.207Z,7.50
2022-10-05T07:03:10.487Z,7.70
2022-10-05T07:06:05.030Z,7.80
2022-10-05T07:09:12.021Z,8.00
2022-10-05T07:12:19.354Z,8.20
2022-10-05T07:15:18.078Z,8.40
2022-10-05T07:18:23.978Z,8.70
2022-10-05T07:21:14.473Z,8.90
2022-10-05T07:24:00.381Z,9.20
2022-10-05T07:26:36.978Z,9.50
2022-10-05T07:29:32.425Z,9.70
2022-10-05T07:32:12.069Z,10.00
2022-10-05T07:35:02.085Z,10.20
2022-10-05T07:37:57.681Z,10.50
2022-10-05T07:40:49.074Z,10.80
2022-10-05T07:43:57.478Z,11.20
2022-10-05T07:46:37.487Z,11.50
2022-10-05T07:49:23.521Z,12.00
2022-10-05T07:52:01.933Z,12.30
2022-10-05T07:54:54.219Z,12.90
2022-10-05T07:57:51.224Z,13.70
2022-10-05T08:00:22.332Z,14.80
2022-10-05T08:02:58.321Z,16.00
2022-10-05T08:05:42.294Z,16.90
2022-10-05T08:08:38.375Z,17.70
2022-10-05T08:11:27.498Z,18.40
2022-10-05T08:14:06.525Z,18.70
2022-10-05T08:16:38.494Z,18.70
2022-10-05T08:19:29.476Z,18.90
2022-10-05T08:22:10.874Z,19.10
2022-10-05T08:25:10.598Z,19.20
2022-10-05T08:28:05.064Z,19.30
2022-10-05T08:30:40.083Z,19.40
2022-10-05T08:33:14.837Z,19.60
2022-10-05T08:35:45.531Z,19.30
2022-10-05T08:38:20.096Z,19.20
2022-10-05T08:41:10.075Z,19.20
2022-10-05T08:44:14.306Z,19.40
2022-10-05T08:47:05.824Z,19.80
2022-10-05T08:49:46.123Z,20.00
2022-10-05T08:52:28.888Z,20.30
2022-10-05T08:55:36.138Z,20.60
2022-10-05T08:58:40.938Z,20.90
2022-10-05T09:01:19.874Z,20.80
2022-10-05T09:04:07.178Z,21.10
2022-10-05T09:06:59.190Z,21.00
2022-10-05T09:09:46.028Z,20.90
2022-10-05T09:12:47.552Z,21.00
2022-10-05T09:15:26.554Z,21.00
2022-10-05T09:18:27.749Z,21.20
2022-10-05T09:21:13.966Z,21.30
2022-10-05T09:23:49.054Z,21.40
2022-10-05T09:26:55.055Z,21.90
2022-10-05T09:29:24.497Z,22.10
2022-10-05T09:32:19.856Z,22.30
2022-10-05T09:34:58.570Z,22.50
2022-10-05T09:37:45.943Z,22.80
2022-10-05T09:40:40.563Z,23.00
2022-10-05T09:43:28.404Z,22.80
2022-10-05T09:46:20.497Z,22.40
2022-10-05T09:49:02.956Z,22.30
2022-10-05T09:51:52.112Z,22.30
2022-10-05T09:55:02.954Z,22.40
2022-10-05T09:57:53.205Z,22.20
2022-10-05T10:00:50.144Z,22.10
2022-10-05T10:04:07.027Z,21.90
2022-10-05T10:06:42.415Z,21.60
2022-10-05T10:09:18.340Z,21.30
2022-10-05T10:12:12.713Z,21.30
2022-10-05T10:15:03.060Z,21.10
2022-10-05T10:18:11.166Z,20.70
2022-10-05T10:21:13.535Z,20.60
2022-10-05T10:24:15.263Z,20.70
2022-10-05T10:27:22.874Z,20.90
2022-10-05T10:30:27.501Z,21.00
2022-10-05T10:33:03.499Z,21.00
2022-10-05T10:35:37.640Z,21.10
2022-10-05T10:38:45.113Z,21.00
2022-10-05T10:41:47.853Z,20.90
2022-10-05T10:44:37.974Z,21.00
2022-10-05T10:48:00.781Z,21.20
2022-10-05T10:50:37.337Z,21.30
2022-10-05T10:53:32.527Z,21.60
2022-10-05T10:56:06.244Z,21.60
2022-10-05T10:59:07.960Z,21.40
2022-10-05T11:01:55.802Z,21.20
2022-10-05T11:04:49.931Z,21.20
2022-10-05T11:08:02.312Z,21.30
2022-10-05T11:10:50.326Z,21.30
2022-10-05T11:13:52.274Z,21.40
2022-10-05T11:16:37.356Z,21.80
2022-10-05T11:19:40.246Z,22.20
2022-10-05T11:22:47.421Z,22.80
2022-10-05T11:25:38.722Z,23.40
2022-10-05T11:28:35.853Z,24.20
2022-10-05T11:31:35.218Z,24.40
2022-10-05T11:34:23.761Z,24.40
2022-10-05T11:37:09.353Z,24.70
2022-10-05T11:39:44.052Z,24.70
2022-10-05T11:42:37.069Z,24.80
2022-10-05T11:45:25.074Z,25.00
2022-10-05T11:47:58.270Z,24.90
2022-10-05T11:50:33.862Z,24.80
2022-10-05T11:53:42.684Z,25.20
2022-10-05T11:56:24.001Z,25.80
2022-10-05T11:59:07.697Z,25.60
2022-10-05T12:01:49.639Z,25.50
2022-10-05T12:04:54.156Z,25.20
2022-10-05T12:07:48.093Z,25.40
2022-10-05T12:10:23.339Z,25.80
2022-10-05T12:13:19.377Z,26.00
2022-10-05T12:16:22.701Z,25.70
2022-10-05T12:19:03.153Z,25.80
2022-10-05T12:22:10.669Z,25.80
2022-10-05T12:24:38.350Z,25.90
2022-10-05T12:27:22.045Z,25.70
2022-10-05T12:30:01.419Z,26.20
2022-10-05T12:33:02.020Z,26.20
2022-10-05T12:35:49.330Z,26.40
2022-10-05T12:38:41.786Z,26.00
2022-10-05T12:41:22.328Z,25.50
2022-10-05T12:44:04.415Z,25.30
2022-10-05T12:46:42.342Z,25.90
2022-10-05T12:49:21.197Z,26.00
2022-10-05T12:52:01.837Z,26.70
2022-10-05T12:55:14.373Z,26.60
2022-10-05T12:58:09.161Z,26.60
2022-10-05T13:00:48.147Z,27.30
2022-10-05T13:03:25.514Z,27.00
2022-10-05T13:06:07.979Z,27.10
2022-10-05T13:08:42.138Z,27.10
2022-10-05T13:11:19.087Z,27.40
2022-10-05T13:14:03.843Z,27.60
2022-10-05T13:16:51.256Z,26.70
2022-10-05T13:19:36.760Z,26.50
2022-10-05T13:22:36.600Z,27.10
2022-10-05T13:25:31.378Z,26.30
2022-10-05T13:28:20.141Z,26.10
2022-10-05T13:31:05.349Z,26.00
2022-10-05T13:33:57.470Z,25.50
2022-10-05T13:36:39.763Z,25.50
2022-10-05T13:39:47.745Z,25.70
2022-10-05T13:42:27.146Z,25.80
2022-10-05T13:45:18.889Z,25.80
2022-10-05T13:47:57.658Z,25.40
2022-10-05T13:50:32.672Z,24.60
2022-10-05T13:53:31.564Z,24.50
2022-10-05T13:56:07.350Z,24.80
2022-10-05T13:58:42.756Z,25.20
2022-10-05T14:01:49.860Z,25.10
2022-10-05T14:04:21.934Z,25.20
2022-10-05T14:06:50.240Z,25.90
2022-10-05T14:09:20.503Z,26.20
2022-10-05T14:11:51.148Z,26.40
2022-10-05T14:14:29.095Z,26.10
2022-10-05T14:16:59.599Z,25.70
2022-10-05T14:19:32.512Z,25.70
2022-10-05T14:22:12.064Z,24.80
2022-10-05T14:24:48.457Z,23.70
2022-10-05T14:27:27.791Z,23.20
2022-10-05T14:30:02.374Z,22.80
2022-10-05T14:32:48.564Z,22.60
2022-10-05T14:35:18.423Z,22.50
2022-10-05T14:37:56.303Z,22.30
2022-10-05T14:40:29.925Z,22.00
2022-10-05T14:43:02.216Z,22.00
2022-10-05T14:45:30.741Z,22.00
2022-10-05T14:48:01.566Z,22.00
2022-10-05T14:50:32.351Z,21.90
2022-10-05T14:53:11.329Z,22.00
2022-10-05T14:56:24.780Z,21.90
2022-10-05T14:59:22.190Z,21.80
2022-10-05T15:02:18.647Z,21.80
2022-10-05T15:05:31.403Z,21.80
2022-10-05T15:08:12.166Z,21.60
2022-10-05T15:10:59.040Z,21.50
2022-10-05T15:13:32.777Z,21.40
2022-10-05T15:16:21.098Z,21.30
2022-10-05T15:19:15.967Z,21.30
2022-10-05T15:22:14.740Z,21.10
2022-10-05T15:24:48.873Z,21.00
2022-10-05T15:28:04.103Z,20.90
2022-10-05T15:30:36.284Z,20.80
2022-10-05T15:33:13.002Z,20.70
2022-10-05T15:35:48.055Z,20.60
2022-10-05T15:38:22.730Z,20.50
2022-10-05T15:41:15.061Z,20.40
2022-10-05T15:44:20.408Z,20.30
2022-10-05T15:46:47.597Z,20.20
2022-10-05T15:49:29.320Z,20.10
2022-10-05T15:52:19.707Z,19.90
2022-10-05T15:55:08.109Z,19.80
2022-10-05T15:58:10.259Z,19.70
2022-10-05T16:00:48.574Z,19.50
2022-10-05T16:03:51.546Z,19.40
2022-10-05T16:06:56.253Z,19.20
2022-10-05T16:09:46.822Z,19.00
2022-10-05T16:12:20.836Z,18.90
2022-10-05T16:15:02.640Z,18.70
2022-10-05T16:17:35.807Z,18.60
2022-10-05T16:20:31.798Z,18.50
2022-10-05T16:23:18.571Z,18.40
2022-10-05T16:26:13.341Z,18.40
2022-10-05T16:29:03.030Z,18.30
2022-10-05T16:32:12.275Z,18.20
2022-10-05T16:35:10.718Z,18.20
2022-10-05T16:38:20.755Z,18.00
2022-10-05T16:41:15.191Z,18.00
2022-10-05T16:44:11.231Z,17.80
2022-10-05T16:46:59.963Z,17.70
2022-10-05T16:49:45.178Z,17.50
2022-10-05T16:52:19.471Z,17.40
2022-10-05T16:55:02.905Z,17.30
2022-10-05T16:57:55.642Z,17.10
2022-10-05T17:00:28.721Z,16.90
2022-10-05T17:03:28.737Z,16.70
2022-10-05T17:06:43.569Z,16.50
2022-10-05T17:09:42.859Z,16.40
2022-10-05T17:12:22.555Z,16.20
2022-10-05T17:15:29.365Z,16.00
2022-10-05T17:18:23.791Z,15.90
2022-10-05T17:21:17.118Z,15.70
2022-10-05T17:23:59.523Z,15.50
2022-10-05T17:26:58.596Z,15.30
2022-10-05T17:29:47.595Z,15.00
2022-10-05T17:32:36.112Z,14.90
2022-10-05T17:35:19.070Z,14.80
2022-10-05T17:38:12.170Z,14.80
2022-10-05T17:40:40.590Z,14.70
2022-10-05T17:43:16.370Z,14.70
2022-10-05T17:45:44.574Z,14.70
2022-10-05T17:48:13.446Z,14.60
2022-10-05T17:51:07.436Z,14.60
2022-10-05T17:54:06.412Z,14.70
2022-10-05T17:56:56.401Z,14.60
2022-10-05T17:59:53.918Z,14.60
2022-10-05T18:02:43.341Z,14.50
2022-10-05T18:05:27.861Z,14.50
2022-10-05T18:08:15.651Z,14.30
2022-10-05T18:11:31.119Z,14.20
2022-10-05T18:14:50.130Z,14.10
2022-10-05T18:17:35.944Z,13.90
2022-10-05T18:20:25.514Z,13.60
2022-10-05T18:23:00.986Z,13.50
2022-10-05T18:25:45.608Z,13.50
2022-10-05T18:28:39.380Z,13.50
2022-10-05T18:31:36.631Z,13.60
2022-10-05T18:34:29.665Z,13.50
2022-10-05T18:37:35.662Z,13.60
2022-10-05T18:40:37.397Z,13.50
2022-10-05T18:43:28.475Z,13.90
2022-10-05T18:46:14.285Z,14.10
2022-10-05T18:48:57.512Z,14.30
2022-10-05T18:51:55.293Z,14.40
2022-10-05T18:54:54.815Z,14.40
2022-10-05T18:57:45.984Z,14.60
2022-10-05T19:00:24.219Z,14.70
2022-10-05T19:03:12.562Z,14.70
2022-10-05T19:05:49.116Z,14.60
2022-10-05T19:08:45.258Z,14.60
2022-10-05T19:11:33.678Z,14.40
2022-10-05T19:14:40.839Z,14.10
2022-10-05T19:17:21.673Z,13.80
2022-10-05T19:20:19.552Z,13.50
2022-10-05T19:23:28.354Z,13.30
2022-10-05T19:26:11.887Z,13.10
2022-10-05T19:29:08.944Z,13.00
2022-10-05T19:31:54.594Z,12.90
2022-10-05T19:34:41.758Z,12.80
2022-10-05T19:37:15.784Z,12.70
2022-10-05T19:40:11.223Z,12.60
2022-10-05T19:43:10.362Z,12.50
2022-10-05T19:45:54.694Z,12.40
2022-10-05T19:48:37.199Z,12.30
2022-10-05T19:51:30.752Z,12.20
2022-10-05T19:54:13.985Z,12.10
2022-10-05T19:56:50.019Z,11.90
2022-10-05T19:59:37.225Z,11.90
2022-10-05T20:02:04.703Z,11.90
2022-10-05T20:04:36.711Z,11.90
2022-10-05T20:07:04.468Z,11.80
2022-10-05T20:09:59.624Z,11.70
2022-10-05T20:12:57.515Z,11.60
2022-10-05T20:15:47.029Z,11.50
2022-10-05T20:19:02.940Z,11.40
2022-10-05T20:21:42.723Z,11.30
2022-10-05T20:24:14.333Z,11.20
2022-10-05T20:27:16.058Z,11.20
2022-10-05T20:29:44.999Z,11.10
2022-10-05T20:32:17.913Z,11.00
2022-10-05T20:34:47.335Z,10.90
2022-10-05T20:37:18.086Z,10.90
2022-10-05T20:39:47.288Z,10.80
2022-10-05T20:42:15.330Z,10.80
2022-10-05T20:44:42.756Z,10.70
2022-10-05T20:47:10.192Z,10.70
2022-10-05T20:49:41.283Z,10.70
2022-10-05T20:52:11.346Z,10.70
2022-10-05T20:54:39.778Z,10.70
2022-10-05T20:57:07.141Z,10.70
2022-10-05T20:59:36.232Z,10.70
2022-10-05T21:02:05.647Z,10.60
2022-10-05T21:04:40.934Z,10.60
2022-10-05T21:07:09.728Z,10.70
2022-10-05T21:09:38.492Z,10.60
2022-10-05T21:12:06.823Z,10.60
2022-10-05T21:14:37.729Z,10.60
2022-10-05T21:17:07.049Z,10.50
2022-10-05T21:19:39.337Z,10.50
2022-10-05T21:22:08.648Z,10.50
2022-10-05T21:24:38.750Z,10.50
2022-10-05T21:27:06.647Z,10.40
2022-10-05T21:29:35.755Z,10.30
2022-10-05T21:32:03.709Z,10.30
2022-10-05T21:34:32.087Z,10.20
2022-10-05T21:36:59.685Z,10.20
2022-10-05T21:39:27.290Z,10.10
2022-10-05T21:41:55.406Z,10.10
2022-10-05T21:44:22.754Z,10.10
2022-10-05T21:46:51.715Z,10.00
2022-10-05T21:49:19.970Z,10.00
2022-10-05T21:51:48.189Z,9.90
2022-10-05T21:54:18.579Z,9.80
2022-10-05T21:56:52.657Z,9.70
2022-10-05T21:59:23.388Z,9.70
2022-10-05T22:01:50.725Z,9.70
2022-10-05T22:04:19.274Z,9.70
2022-10-05T22:06:49.279Z,9.70
2022-10-05T22:09:17.346Z,9.60
2022-10-05T22:11:49.245Z,9.60
2022-10-05T22:14:18.237Z,9.70
2022-10-05T22:16:46.631Z,9.90
2022-10-05T22:19:18.029Z,10.30
2022-10-05T22:21:46.191Z,10.60
2022-10-05T22:24:13.986Z,10.80
2022-10-05T22:26:44.863Z,11.10
2022-10-05T22:29:12.598Z,11.60
2022-10-05T22:31:41.193Z,12.20
2022-10-05T22:34:08.773Z,12.70
2022-10-05T22:36:37.578Z,13.10
2022-10-05T22:39:05.806Z,13.40
2022-10-05T22:41:33.082Z,13.60
2022-10-05T22:44:00.953Z,13.70
2022-10-05T22:46:29.331Z,13.70
2022-10-05T22:48:56.848Z,13.80
2022-10-05T22:51:24.214Z,13.80
2022-10-05T22:53:54.187Z,13.80
2022-10-05T22:56:21.898Z,13.80
2022-10-05T22:58:51.072Z,13.80
2022-10-05T23:01:19.918Z,13.80
2022-10-05T23:03:47.910Z,13.70
2022-10-05T23:06:17.926Z,13.70
2022-10-05T23:08:45.653Z,13.70
2022-10-05T23:11:27.808Z,13.70
2022-10-05T23:13:56.782Z,13.80
2022-10-05T23:16:27.110Z,13.90
2022-10-05T23:18:55.743Z,14.00
2022-10-05T23:21:27.295Z,14.10
2022-10-05T23:23:54.946Z,14.20
2022-10-05T23:26:25.414Z,14.20
2022-10-05T23:28:53.054Z,14.10
2022-10-05T23:31:24.302Z,14.00
2022-10-05T23:33:53.221Z,14.00
2022-10-05T23:36:23.298Z,14.00
2022-10-05T23:38:52.102Z,13.90
2022-10-05T23:41:20.760Z,13.70
2022-10-05T23:43:48.996Z,13.60
2022-10-05T23:46:16.188Z,13.50
2022-10-05T23:48:45.165Z,13.30
2022-10-05T23:51:14.411Z,13.10
2022-10-05T23:53:42.358Z,12.90
2022-10-05T23:56:09.909Z,12.80
2022-10-05T23:58:37.840Z,12.70
